sensor_id;sensor_type;location;lat;lon;timestamp;temperature;humidity
4904;DHT22;2467;48.142;11.616;2023-04-08T00:00:30;8.10;99.90
4904;DHT22;2467;48.142;11.616;2023-04-08T00:01:02;8.10;99.90
4904;DHT22;2467;48.142;11.616;2023-04-08T00:01:35;8.10;99.90
4904;DHT22;2467;48.142;11.616;2023-04-08T00:02:07;8.10;99.90
4904;DHT22;2467;48.142;11.616;2023-04-08T00:02:39;8.00;99.90
4904;DHT22;2467;48.142;11.616;2023-04-08T00:03:13;7.90;99.90
4904;DHT22;2467;48.142;11.616;2023-04-08T00:03:45;7.90;99.90
4904;DHT22;2467;48.142;11.616;2023-04-08T00:04:18;7.90;99.90
4904;DHT22;2467;48.142;11.616;2023-04-08T00:04:51;7.90;99.90
4904;DHT22;2467;48.142;11.616;2023-04-08T00:05:24;7.90;99.90
4904;DHT22;2467;48.142;11.616;2023-04-08T00:05:56;7.90;99.90
4904;DHT22;2467;48.142;11.616;2023-04-08T00:06:31;7.80;99.90
4904;DHT22;2467;48.142;11.616;2023-04-08T00:07:03;7.80;99.90
4904;DHT22;2467;48.142;11.616;2023-04-08T00:07:35;7.80;99.90
4904;DHT22;2467;48.142;11.616;2023-04-08T00:08:08;7.80;99.90
4904;DHT22;2467;48.142;11.616;2023-04-08T00:08:40;7.80;99.90
4904;DHT22;2467;48.142;11.616;2023-04-08T00:09:12;7.80;99.90
4904;DHT22;2467;48.142;11.616;2023-04-08T00:09:44;7.80;99.90
4904;DHT22;2467;48.142;11.616;2023-04-08T00:10:18;7.80;99.90
4904;DHT22;2467;48.142;11.616;2023-04-08T00:10:50;7.80;99.90
4904;DHT22;2467;48.142;11.616;2023-04-08T00:11:23;7.80;99.90
4904;DHT22;2467;48.142;11.616;2023-04-08T00:11:55;7.80;99.90
4904;DHT22;2467;48.142;11.616;2023-04-08T00:12:27;7.80;99.90
4904;DHT22;2467;48.142;11.616;2023-04-08T00:13:01;7.80;99.90
4904;DHT22;2467;48.142;11.616;2023-04-08T00:13:33;7.90;99.90
4904;DHT22;2467;48.142;11.616;2023-04-08T00:14:05;7.80;99.90
4904;DHT22;2467;48.142;11.616;2023-04-08T00:14:37;7.90;99.90
4904;DHT22;2467;48.142;11.616;2023-04-08T00:15:11;7.90;99.90
4904;DHT22;2467;48.142;11.616;2023-04-08T00:15:44;7.90;99.90
4904;DHT22;2467;48.142;11.616;2023-04-08T00:16:16;7.80;99.90
4904;DHT22;2467;48.142;11.616;2023-04-08T00:16:48;7.80;99.90
4904;DHT22;2467;48.142;11.616;2023-04-08T00:17:21;7.80;99.90
4904;DHT22;2467;48.142;11.616;2023-04-08T00:17:52;7.80;99.90
4904;DHT22;2467;48.142;11.616;2023-04-08T00:18:25;7.80;99.90
4904;DHT22;2467;48.142;11.616;2023-04-08T00:18:58;7.80;99.90
4904;DHT22;2467;48.142;11.616;2023-04-08T00:19:30;7.90;99.90
4904;DHT22;2467;48.142;11.616;2023-04-08T00:20:02;7.80;99.90
4904;DHT22;2467;48.142;11.616;2023-04-08T00:20:37;7.80;99.90
4904;DHT22;2467;48.142;11.616;2023-04-08T00:21:09;7.80;99.90
4904;DHT22;2467;48.142;11.616;2023-04-08T00:21:41;7.80;99.90
4904;DHT22;2467;48.142;11.616;2023-04-08T00:22:14;7.80;99.90
4904;DHT22;2467;48.142;11.616;2023-04-08T00:22:46;7.80;99.90
4904;DHT22;2467;48.142;11.616;2023-04-08T00:23:18;7.80;99.90
4904;DHT22;2467;48.142;11.616;2023-04-08T00:23:52;7.80;99.90
4904;DHT22;2467;48.142;11.616;2023-04-08T00:24:24;7.80;99.90
4904;DHT22;2467;48.142;11.616;2023-04-08T00:24:56;7.80;99.90
4904;DHT22;2467;48.142;11.616;2023-04-08T00:25:30;7.80;99.90
4904;DHT22;2467;48.142;11.616;2023-04-08T00:26:02;7.80;99.90
4904;DHT22;2467;48.142;11.616;2023-04-08T00:26:34;7.80;99.90
4904;DHT22;2467;48.142;11.616;2023-04-08T00:27:06;7.80;99.90
4904;DHT22;2467;48.142;11.616;2023-04-08T00:27:38;7.80;99.90
4904;DHT22;2467;48.142;11.616;2023-04-08T00:28:10;7.80;99.90
4904;DHT22;2467;48.142;11.616;2023-04-08T00:28:43;7.80;99.90
4904;DHT22;2467;48.142;11.616;2023-04-08T00:29:15;7.80;99.90
4904;DHT22;2467;48.142;11.616;2023-04-08T00:29:47;7.80;99.90
4904;DHT22;2467;48.142;11.616;2023-04-08T00:30:20;7.80;99.90
4904;DHT22;2467;48.142;11.616;2023-04-08T00:30:52;7.80;99.90
4904;DHT22;2467;48.142;11.616;2023-04-08T00:31:24;7.90;99.90
4904;DHT22;2467;48.142;11.616;2023-04-08T00:31:57;7.90;99.90
4904;DHT22;2467;48.142;11.616;2023-04-08T00:32:30;7.90;99.90
4904;DHT22;2467;48.142;11.616;2023-04-08T00:33:02;7.70;99.90
4904;DHT22;2467;48.142;11.616;2023-04-08T00:33:35;7.90;99.90
4904;DHT22;2467;48.142;11.616;2023-04-08T00:34:07;7.90;99.90
4904;DHT22;2467;48.142;11.616;2023-04-08T00:34:39;7.90;99.90
4904;DHT22;2467;48.142;11.616;2023-04-08T00:35:12;7.90;99.90
4904;DHT22;2467;48.142;11.616;2023-04-08T00:35:45;7.90;99.90
4904;DHT22;2467;48.142;11.616;2023-04-08T00:36:18;7.90;99.90
4904;DHT22;2467;48.142;11.616;2023-04-08T00:36:50;7.90;99.90
4904;DHT22;2467;48.142;11.616;2023-04-08T00:37:22;7.90;99.90
4904;DHT22;2467;48.142;11.616;2023-04-08T00:37:55;7.90;99.90
4904;DHT22;2467;48.142;11.616;2023-04-08T00:38:27;7.90;99.90
4904;DHT22;2467;48.142;11.616;2023-04-08T00:38:59;7.90;99.90
4904;DHT22;2467;48.142;11.616;2023-04-08T00:39:32;7.90;99.90
4904;DHT22;2467;48.142;11.616;2023-04-08T00:40:05;7.80;99.90
4904;DHT22;2467;48.142;11.616;2023-04-08T00:40:37;7.80;99.90
4904;DHT22;2467;48.142;11.616;2023-04-08T00:41:10;7.80;99.90
4904;DHT22;2467;48.142;11.616;2023-04-08T00:41:41;7.80;99.90
4904;DHT22;2467;48.142;11.616;2023-04-08T00:42:13;7.80;99.90
4904;DHT22;2467;48.142;11.616;2023-04-08T00:42:46;7.80;99.90
4904;DHT22;2467;48.142;11.616;2023-04-08T00:43:18;7.80;99.90
4904;DHT22;2467;48.142;11.616;2023-04-08T00:43:51;7.80;99.90
4904;DHT22;2467;48.142;11.616;2023-04-08T00:44:24;7.80;99.90
4904;DHT22;2467;48.142;11.616;2023-04-08T00:44:56;7.80;99.90
4904;DHT22;2467;48.142;11.616;2023-04-08T00:45:28;7.80;99.90
4904;DHT22;2467;48.142;11.616;2023-04-08T00:46:01;7.80;99.90
4904;DHT22;2467;48.142;11.616;2023-04-08T00:46:37;7.80;99.90
4904;DHT22;2467;48.142;11.616;2023-04-08T00:47:11;7.80;99.90
4904;DHT22;2467;48.142;11.616;2023-04-08T00:47:44;7.80;99.90
4904;DHT22;2467;48.142;11.616;2023-04-08T00:48:17;7.80;99.90
4904;DHT22;2467;48.142;11.616;2023-04-08T00:48:49;7.80;99.90
4904;DHT22;2467;48.142;11.616;2023-04-08T00:49:22;7.80;99.90
4904;DHT22;2467;48.142;11.616;2023-04-08T00:49:54;7.80;99.90
4904;DHT22;2467;48.142;11.616;2023-04-08T00:50:26;7.80;99.90
4904;DHT22;2467;48.142;11.616;2023-04-08T00:51:01;7.80;99.90
4904;DHT22;2467;48.142;11.616;2023-04-08T00:51:33;7.80;99.90
4904;DHT22;2467;48.142;11.616;2023-04-08T00:52:06;7.70;99.90
4904;DHT22;2467;48.142;11.616;2023-04-08T00:52:39;7.70;99.90
4904;DHT22;2467;48.142;11.616;2023-04-08T00:53:12;7.60;99.90
4904;DHT22;2467;48.142;11.616;2023-04-08T00:53:44;7.70;99.90
4904;DHT22;2467;48.142;11.616;2023-04-08T00:54:17;7.70;99.90
4904;DHT22;2467;48.142;11.616;2023-04-08T00:54:49;7.70;99.90
4904;DHT22;2467;48.142;11.616;2023-04-08T00:55:21;7.70;99.90
4904;DHT22;2467;48.142;11.616;2023-04-08T00:55:54;7.70;99.90
4904;DHT22;2467;48.142;11.616;2023-04-08T00:56:26;7.60;99.90
4904;DHT22;2467;48.142;11.616;2023-04-08T00:56:58;7.60;99.90
4904;DHT22;2467;48.142;11.616;2023-04-08T00:57:32;7.60;99.90
4904;DHT22;2467;48.142;11.616;2023-04-08T00:58:04;7.60;99.90
4904;DHT22;2467;48.142;11.616;2023-04-08T00:58:35;7.60;99.90
4904;DHT22;2467;48.142;11.616;2023-04-08T00:59:08;7.60;99.90
4904;DHT22;2467;48.142;11.616;2023-04-08T00:59:41;7.60;99.90
4904;DHT22;2467;48.142;11.616;2023-04-08T01:00:14;7.60;99.90
4904;DHT22;2467;48.142;11.616;2023-04-08T01:00:51;7.60;99.90
4904;DHT22;2467;48.142;11.616;2023-04-08T01:01:37;7.60;99.90
4904;DHT22;2467;48.142;11.616;2023-04-08T01:02:16;7.60;99.90
4904;DHT22;2467;48.142;11.616;2023-04-08T01:02:58;7.60;99.90
4904;DHT22;2467;48.142;11.616;2023-04-08T01:03:51;7.50;99.90
4904;DHT22;2467;48.142;11.616;2023-04-08T01:04:31;7.50;99.90
4904;DHT22;2467;48.142;11.616;2023-04-08T01:05:06;7.40;99.90
4904;DHT22;2467;48.142;11.616;2023-04-08T01:05:49;7.40;99.90
4904;DHT22;2467;48.142;11.616;2023-04-08T01:06:31;7.30;99.90
4904;DHT22;2467;48.142;11.616;2023-04-08T01:07:16;7.30;99.90
4904;DHT22;2467;48.142;11.616;2023-04-08T01:07:49;7.30;99.90
4904;DHT22;2467;48.142;11.616;2023-04-08T01:08:22;7.30;99.90
4904;DHT22;2467;48.142;11.616;2023-04-08T01:08:59;7.30;99.90
4904;DHT22;2467;48.142;11.616;2023-04-08T01:09:32;7.30;99.90
4904;DHT22;2467;48.142;11.616;2023-04-08T01:10:12;7.20;99.90
4904;DHT22;2467;48.142;11.616;2023-04-08T01:10:48;7.20;99.90
4904;DHT22;2467;48.142;11.616;2023-04-08T01:11:22;7.30;99.90
4904;DHT22;2467;48.142;11.616;2023-04-08T01:11:55;7.20;99.90
4904;DHT22;2467;48.142;11.616;2023-04-08T01:12:31;7.20;99.90
4904;DHT22;2467;48.142;11.616;2023-04-08T01:13:05;7.20;99.90
4904;DHT22;2467;48.142;11.616;2023-04-08T01:13:41;7.20;99.90
4904;DHT22;2467;48.142;11.616;2023-04-08T01:14:18;7.10;99.90
4904;DHT22;2467;48.142;11.616;2023-04-08T01:14:52;7.10;99.90
4904;DHT22;2467;48.142;11.616;2023-04-08T01:15:27;7.10;99.90
4904;DHT22;2467;48.142;11.616;2023-04-08T01:16:00;7.10;99.90
4904;DHT22;2467;48.142;11.616;2023-04-08T01:16:33;7.10;99.90
4904;DHT22;2467;48.142;11.616;2023-04-08T01:17:05;7.10;99.90
4904;DHT22;2467;48.142;11.616;2023-04-08T01:17:39;7.10;99.90
4904;DHT22;2467;48.142;11.616;2023-04-08T01:18:13;7.20;99.90
4904;DHT22;2467;48.142;11.616;2023-04-08T01:18:47;7.10;99.90
4904;DHT22;2467;48.142;11.616;2023-04-08T01:19:26;7.10;99.90
4904;DHT22;2467;48.142;11.616;2023-04-08T01:20:01;7.20;99.90
4904;DHT22;2467;48.142;11.616;2023-04-08T01:20:35;7.20;99.90
4904;DHT22;2467;48.142;11.616;2023-04-08T01:21:08;7.20;99.90
4904;DHT22;2467;48.142;11.616;2023-04-08T01:21:42;7.10;99.90
4904;DHT22;2467;48.142;11.616;2023-04-08T01:22:22;7.10;99.90
4904;DHT22;2467;48.142;11.616;2023-04-08T01:23:05;7.10;99.90
4904;DHT22;2467;48.142;11.616;2023-04-08T01:23:44;7.10;99.90
4904;DHT22;2467;48.142;11.616;2023-04-08T01:24:22;7.10;99.90
4904;DHT22;2467;48.142;11.616;2023-04-08T01:25:00;7.10;99.90
4904;DHT22;2467;48.142;11.616;2023-04-08T01:25:34;7.10;99.90
4904;DHT22;2467;48.142;11.616;2023-04-08T01:26:09;7.10;99.90
4904;DHT22;2467;48.142;11.616;2023-04-08T01:26:42;7.10;99.90
4904;DHT22;2467;48.142;11.616;2023-04-08T01:27:15;7.10;99.90
4904;DHT22;2467;48.142;11.616;2023-04-08T01:27:48;7.00;99.90
4904;DHT22;2467;48.142;11.616;2023-04-08T01:28:23;7.00;99.90
4904;DHT22;2467;48.142;11.616;2023-04-08T01:28:59;6.90;99.90
4904;DHT22;2467;48.142;11.616;2023-04-08T01:29:34;6.90;99.90
4904;DHT22;2467;48.142;11.616;2023-04-08T01:30:07;6.90;99.90
4904;DHT22;2467;48.142;11.616;2023-04-08T01:30:40;6.90;99.90
4904;DHT22;2467;48.142;11.616;2023-04-08T01:31:14;6.90;99.90
4904;DHT22;2467;48.142;11.616;2023-04-08T01:31:47;6.90;99.90
4904;DHT22;2467;48.142;11.616;2023-04-08T01:32:19;6.90;99.90
4904;DHT22;2467;48.142;11.616;2023-04-08T01:32:54;6.80;99.90
4904;DHT22;2467;48.142;11.616;2023-04-08T01:33:27;6.90;99.90
4904;DHT22;2467;48.142;11.616;2023-04-08T01:34:01;6.90;99.90
4904;DHT22;2467;48.142;11.616;2023-04-08T01:34:36;6.90;99.90
4904;DHT22;2467;48.142;11.616;2023-04-08T01:35:09;6.90;99.90
4904;DHT22;2467;48.142;11.616;2023-04-08T01:35:41;6.80;99.90
4904;DHT22;2467;48.142;11.616;2023-04-08T01:36:16;6.80;99.90
4904;DHT22;2467;48.142;11.616;2023-04-08T01:36:48;6.80;99.90
4904;DHT22;2467;48.142;11.616;2023-04-08T01:37:22;6.80;99.90
4904;DHT22;2467;48.142;11.616;2023-04-08T01:37:57;6.80;99.90
4904;DHT22;2467;48.142;11.616;2023-04-08T01:38:30;6.80;99.90
4904;DHT22;2467;48.142;11.616;2023-04-08T01:39:04;6.80;99.90
4904;DHT22;2467;48.142;11.616;2023-04-08T01:39:39;6.80;99.90
4904;DHT22;2467;48.142;11.616;2023-04-08T01:40:11;6.80;99.90
4904;DHT22;2467;48.142;11.616;2023-04-08T01:40:44;6.80;99.90
4904;DHT22;2467;48.142;11.616;2023-04-08T01:41:19;6.80;99.90
4904;DHT22;2467;48.142;11.616;2023-04-08T01:41:52;6.80;99.90
4904;DHT22;2467;48.142;11.616;2023-04-08T01:42:27;6.80;99.90
4904;DHT22;2467;48.142;11.616;2023-04-08T01:43:02;6.80;99.90
4904;DHT22;2467;48.142;11.616;2023-04-08T01:43:34;6.70;99.90
4904;DHT22;2467;48.142;11.616;2023-04-08T01:44:09;6.80;99.90
4904;DHT22;2467;48.142;11.616;2023-04-08T01:44:42;6.80;99.90
4904;DHT22;2467;48.142;11.616;2023-04-08T01:45:15;6.80;99.90
4904;DHT22;2467;48.142;11.616;2023-04-08T01:45:49;6.80;99.90
4904;DHT22;2467;48.142;11.616;2023-04-08T01:46:25;6.80;99.90
4904;DHT22;2467;48.142;11.616;2023-04-08T01:46:58;6.80;99.90
4904;DHT22;2467;48.142;11.616;2023-04-08T01:47:31;6.80;99.90
4904;DHT22;2467;48.142;11.616;2023-04-08T01:48:04;6.80;99.90
4904;DHT22;2467;48.142;11.616;2023-04-08T01:48:37;6.80;99.90
4904;DHT22;2467;48.142;11.616;2023-04-08T01:49:11;6.80;99.90
4904;DHT22;2467;48.142;11.616;2023-04-08T01:49:45;6.80;99.90
4904;DHT22;2467;48.142;11.616;2023-04-08T01:50:18;6.80;99.90
4904;DHT22;2467;48.142;11.616;2023-04-08T01:50:51;6.70;99.90
4904;DHT22;2467;48.142;11.616;2023-04-08T01:51:25;6.70;99.90
4904;DHT22;2467;48.142;11.616;2023-04-08T01:51:58;6.80;99.90
4904;DHT22;2467;48.142;11.616;2023-04-08T01:52:33;6.70;99.90
4904;DHT22;2467;48.142;11.616;2023-04-08T01:53:08;6.70;99.90
4904;DHT22;2467;48.142;11.616;2023-04-08T01:53:41;6.70;99.90
4904;DHT22;2467;48.142;11.616;2023-04-08T01:54:14;6.70;99.90
4904;DHT22;2467;48.142;11.616;2023-04-08T01:54:47;6.70;99.90
4904;DHT22;2467;48.142;11.616;2023-04-08T01:55:19;6.70;99.90
4904;DHT22;2467;48.142;11.616;2023-04-08T01:55:56;6.70;99.90
4904;DHT22;2467;48.142;11.616;2023-04-08T01:56:32;6.80;99.90
4904;DHT22;2467;48.142;11.616;2023-04-08T01:57:07;6.70;99.90
4904;DHT22;2467;48.142;11.616;2023-04-08T01:57:45;6.70;99.90
4904;DHT22;2467;48.142;11.616;2023-04-08T01:58:20;6.70;99.90
4904;DHT22;2467;48.142;11.616;2023-04-08T01:58:54;6.70;99.90
4904;DHT22;2467;48.142;11.616;2023-04-08T01:59:30;6.70;99.90
4904;DHT22;2467;48.142;11.616;2023-04-08T02:00:08;6.70;99.90
4904;DHT22;2467;48.142;11.616;2023-04-08T02:00:40;6.70;99.90
4904;DHT22;2467;48.142;11.616;2023-04-08T02:01:17;6.70;99.90
4904;DHT22;2467;48.142;11.616;2023-04-08T02:01:51;6.70;99.90
4904;DHT22;2467;48.142;11.616;2023-04-08T02:02:25;6.90;99.90
4904;DHT22;2467;48.142;11.616;2023-04-08T02:02:58;6.70;99.90
4904;DHT22;2467;48.142;11.616;2023-04-08T02:03:33;6.70;99.90
4904;DHT22;2467;48.142;11.616;2023-04-08T02:04:06;6.70;99.90
4904;DHT22;2467;48.142;11.616;2023-04-08T02:04:38;6.70;99.90
4904;DHT22;2467;48.142;11.616;2023-04-08T02:05:11;6.60;99.90
4904;DHT22;2467;48.142;11.616;2023-04-08T02:05:44;6.60;99.90
4904;DHT22;2467;48.142;11.616;2023-04-08T02:06:15;6.60;99.90
4904;DHT22;2467;48.142;11.616;2023-04-08T02:06:49;6.60;99.90
4904;DHT22;2467;48.142;11.616;2023-04-08T02:07:21;6.60;99.90
4904;DHT22;2467;48.142;11.616;2023-04-08T02:07:53;6.60;99.90
4904;DHT22;2467;48.142;11.616;2023-04-08T02:08:26;6.60;99.90
4904;DHT22;2467;48.142;11.616;2023-04-08T02:08:58;6.60;99.90
4904;DHT22;2467;48.142;11.616;2023-04-08T02:09:31;6.70;99.90
4904;DHT22;2467;48.142;11.616;2023-04-08T02:10:06;6.70;99.90
4904;DHT22;2467;48.142;11.616;2023-04-08T02:10:38;6.70;99.90
4904;DHT22;2467;48.142;11.616;2023-04-08T02:11:10;6.60;99.90
4904;DHT22;2467;48.142;11.616;2023-04-08T02:11:44;6.60;99.90
4904;DHT22;2467;48.142;11.616;2023-04-08T02:12:16;6.50;99.90
4904;DHT22;2467;48.142;11.616;2023-04-08T02:12:48;6.60;99.90
4904;DHT22;2467;48.142;11.616;2023-04-08T02:13:21;6.60;99.90
4904;DHT22;2467;48.142;11.616;2023-04-08T02:13:53;6.60;99.90
4904;DHT22;2467;48.142;11.616;2023-04-08T02:14:25;6.60;99.90
4904;DHT22;2467;48.142;11.616;2023-04-08T02:14:58;6.60;99.90
4904;DHT22;2467;48.142;11.616;2023-04-08T02:15:33;6.50;99.90
4904;DHT22;2467;48.142;11.616;2023-04-08T02:16:15;6.50;99.90
4904;DHT22;2467;48.142;11.616;2023-04-08T02:16:52;6.50;99.90
4904;DHT22;2467;48.142;11.616;2023-04-08T02:17:30;6.50;99.90
4904;DHT22;2467;48.142;11.616;2023-04-08T02:18:12;6.50;99.90
4904;DHT22;2467;48.142;11.616;2023-04-08T02:18:54;6.60;99.90
4904;DHT22;2467;48.142;11.616;2023-04-08T02:19:29;6.60;99.90
4904;DHT22;2467;48.142;11.616;2023-04-08T02:20:05;6.60;99.90
4904;DHT22;2467;48.142;11.616;2023-04-08T02:20:43;6.50;99.90
4904;DHT22;2467;48.142;11.616;2023-04-08T02:21:21;6.50;99.90
4904;DHT22;2467;48.142;11.616;2023-04-08T02:22:09;6.50;99.90
4904;DHT22;2467;48.142;11.616;2023-04-08T02:22:47;6.50;99.90
4904;DHT22;2467;48.142;11.616;2023-04-08T02:23:23;6.50;99.90
4904;DHT22;2467;48.142;11.616;2023-04-08T02:23:58;6.50;99.90
4904;DHT22;2467;48.142;11.616;2023-04-08T02:24:35;6.50;99.90
4904;DHT22;2467;48.142;11.616;2023-04-08T02:25:10;6.50;99.90
4904;DHT22;2467;48.142;11.616;2023-04-08T02:25:46;6.50;99.90
4904;DHT22;2467;48.142;11.616;2023-04-08T02:26:20;6.50;99.90
4904;DHT22;2467;48.142;11.616;2023-04-08T02:26:54;6.50;99.90
4904;DHT22;2467;48.142;11.616;2023-04-08T02:27:28;6.50;99.90
4904;DHT22;2467;48.142;11.616;2023-04-08T02:28:06;6.50;99.90
4904;DHT22;2467;48.142;11.616;2023-04-08T02:28:40;6.50;99.90
4904;DHT22;2467;48.142;11.616;2023-04-08T02:29:14;6.50;99.90
4904;DHT22;2467;48.142;11.616;2023-04-08T02:29:48;6.50;99.90
4904;DHT22;2467;48.142;11.616;2023-04-08T02:30:23;6.40;99.90
4904;DHT22;2467;48.142;11.616;2023-04-08T02:30:57;6.40;99.90
4904;DHT22;2467;48.142;11.616;2023-04-08T02:31:32;6.40;99.90
4904;DHT22;2467;48.142;11.616;2023-04-08T02:32:04;6.40;99.90
4904;DHT22;2467;48.142;11.616;2023-04-08T02:32:38;6.40;99.90
4904;DHT22;2467;48.142;11.616;2023-04-08T02:33:10;6.40;99.90
4904;DHT22;2467;48.142;11.616;2023-04-08T02:33:43;6.40;99.90
4904;DHT22;2467;48.142;11.616;2023-04-08T02:34:16;6.40;99.90
4904;DHT22;2467;48.142;11.616;2023-04-08T02:34:50;6.40;99.90
4904;DHT22;2467;48.142;11.616;2023-04-08T02:35:23;6.40;99.90
4904;DHT22;2467;48.142;11.616;2023-04-08T02:35:56;6.40;99.90
4904;DHT22;2467;48.142;11.616;2023-04-08T02:36:30;6.40;99.90
4904;DHT22;2467;48.142;11.616;2023-04-08T02:37:03;6.40;99.90
4904;DHT22;2467;48.142;11.616;2023-04-08T02:37:35;6.40;99.90
4904;DHT22;2467;48.142;11.616;2023-04-08T02:38:08;6.40;99.90
4904;DHT22;2467;48.142;11.616;2023-04-08T02:38:41;6.40;99.90
4904;DHT22;2467;48.142;11.616;2023-04-08T02:39:13;6.30;99.90
4904;DHT22;2467;48.142;11.616;2023-04-08T02:39:45;6.30;99.90
4904;DHT22;2467;48.142;11.616;2023-04-08T02:40:25;6.30;99.90
4904;DHT22;2467;48.142;11.616;2023-04-08T02:40:58;6.30;99.90
4904;DHT22;2467;48.142;11.616;2023-04-08T02:41:30;6.30;99.90
4904;DHT22;2467;48.142;11.616;2023-04-08T02:42:04;6.30;99.90
4904;DHT22;2467;48.142;11.616;2023-04-08T02:42:37;6.30;99.90
4904;DHT22;2467;48.142;11.616;2023-04-08T02:43:09;6.40;99.90
4904;DHT22;2467;48.142;11.616;2023-04-08T02:43:41;6.40;99.90
4904;DHT22;2467;48.142;11.616;2023-04-08T02:44:13;6.40;99.90
4904;DHT22;2467;48.142;11.616;2023-04-08T02:44:45;6.30;99.90
4904;DHT22;2467;48.142;11.616;2023-04-08T02:45:17;6.30;99.90
4904;DHT22;2467;48.142;11.616;2023-04-08T02:45:50;6.30;99.90
4904;DHT22;2467;48.142;11.616;2023-04-08T02:46:22;6.30;99.90
4904;DHT22;2467;48.142;11.616;2023-04-08T02:46:54;6.30;99.90
4904;DHT22;2467;48.142;11.616;2023-04-08T02:47:27;6.40;99.90
4904;DHT22;2467;48.142;11.616;2023-04-08T02:47:59;6.30;99.90
4904;DHT22;2467;48.142;11.616;2023-04-08T02:48:32;6.30;99.90
4904;DHT22;2467;48.142;11.616;2023-04-08T02:49:05;6.30;99.90
4904;DHT22;2467;48.142;11.616;2023-04-08T02:49:36;6.30;99.90
4904;DHT22;2467;48.142;11.616;2023-04-08T02:50:09;6.30;99.90
4904;DHT22;2467;48.142;11.616;2023-04-08T02:50:42;6.30;99.90
4904;DHT22;2467;48.142;11.616;2023-04-08T02:51:14;6.30;99.90
4904;DHT22;2467;48.142;11.616;2023-04-08T02:51:46;6.20;99.90
4904;DHT22;2467;48.142;11.616;2023-04-08T02:52:19;6.20;99.90
4904;DHT22;2467;48.142;11.616;2023-04-08T02:52:51;6.20;99.90
4904;DHT22;2467;48.142;11.616;2023-04-08T02:53:23;6.20;99.90
4904;DHT22;2467;48.142;11.616;2023-04-08T02:53:55;6.20;99.90
4904;DHT22;2467;48.142;11.616;2023-04-08T02:54:28;6.20;99.90
4904;DHT22;2467;48.142;11.616;2023-04-08T02:54:59;6.20;99.90
4904;DHT22;2467;48.142;11.616;2023-04-08T02:55:31;6.20;99.90
4904;DHT22;2467;48.142;11.616;2023-04-08T02:56:04;6.20;99.90
4904;DHT22;2467;48.142;11.616;2023-04-08T02:56:36;6.20;99.90
4904;DHT22;2467;48.142;11.616;2023-04-08T02:57:10;6.20;99.90
4904;DHT22;2467;48.142;11.616;2023-04-08T02:57:43;6.20;99.90
4904;DHT22;2467;48.142;11.616;2023-04-08T02:58:15;6.20;99.90
4904;DHT22;2467;48.142;11.616;2023-04-08T02:58:47;6.20;99.90
4904;DHT22;2467;48.142;11.616;2023-04-08T02:59:20;6.20;99.90
4904;DHT22;2467;48.142;11.616;2023-04-08T02:59:52;6.20;99.90
4904;DHT22;2467;48.142;11.616;2023-04-08T03:00:24;6.20;99.90
4904;DHT22;2467;48.142;11.616;2023-04-08T03:00:57;6.20;99.90
4904;DHT22;2467;48.142;11.616;2023-04-08T03:01:29;6.20;99.90
4904;DHT22;2467;48.142;11.616;2023-04-08T03:02:01;6.30;99.90
4904;DHT22;2467;48.142;11.616;2023-04-08T03:02:34;6.30;99.90
4904;DHT22;2467;48.142;11.616;2023-04-08T03:03:07;6.30;99.90
4904;DHT22;2467;48.142;11.616;2023-04-08T03:03:38;6.30;99.90
4904;DHT22;2467;48.142;11.616;2023-04-08T03:04:12;6.30;99.90
4904;DHT22;2467;48.142;11.616;2023-04-08T03:04:43;6.30;99.90
4904;DHT22;2467;48.142;11.616;2023-04-08T03:05:15;6.30;99.90
4904;DHT22;2467;48.142;11.616;2023-04-08T03:05:48;6.30;99.90
4904;DHT22;2467;48.142;11.616;2023-04-08T03:06:20;6.30;99.90
4904;DHT22;2467;48.142;11.616;2023-04-08T03:06:52;6.30;99.90
4904;DHT22;2467;48.142;11.616;2023-04-08T03:07:24;6.30;99.90
4904;DHT22;2467;48.142;11.616;2023-04-08T03:07:57;6.30;99.90
4904;DHT22;2467;48.142;11.616;2023-04-08T03:08:29;6.30;99.90
4904;DHT22;2467;48.142;11.616;2023-04-08T03:09:01;6.30;99.90
4904;DHT22;2467;48.142;11.616;2023-04-08T03:09:33;6.30;99.90
4904;DHT22;2467;48.142;11.616;2023-04-08T03:10:07;6.30;99.90
4904;DHT22;2467;48.142;11.616;2023-04-08T03:10:39;6.30;99.90
4904;DHT22;2467;48.142;11.616;2023-04-08T03:11:11;6.30;99.90
4904;DHT22;2467;48.142;11.616;2023-04-08T03:11:43;6.30;99.90
4904;DHT22;2467;48.142;11.616;2023-04-08T03:12:17;6.30;99.90
4904;DHT22;2467;48.142;11.616;2023-04-08T03:12:50;6.30;99.90
4904;DHT22;2467;48.142;11.616;2023-04-08T03:13:21;6.40;99.90
4904;DHT22;2467;48.142;11.616;2023-04-08T03:13:53;6.30;99.90
4904;DHT22;2467;48.142;11.616;2023-04-08T03:14:26;6.40;99.90
4904;DHT22;2467;48.142;11.616;2023-04-08T03:14:58;6.30;99.90
4904;DHT22;2467;48.142;11.616;2023-04-08T03:15:30;6.40;99.90
4904;DHT22;2467;48.142;11.616;2023-04-08T03:16:04;6.40;99.90
4904;DHT22;2467;48.142;11.616;2023-04-08T03:16:36;6.40;99.90
4904;DHT22;2467;48.142;11.616;2023-04-08T03:17:08;6.40;99.90
4904;DHT22;2467;48.142;11.616;2023-04-08T03:17:41;6.30;99.90
4904;DHT22;2467;48.142;11.616;2023-04-08T03:18:13;6.30;99.90
4904;DHT22;2467;48.142;11.616;2023-04-08T03:18:44;6.40;99.90
4904;DHT22;2467;48.142;11.616;2023-04-08T03:19:17;6.40;99.90
4904;DHT22;2467;48.142;11.616;2023-04-08T03:19:49;6.40;99.90
4904;DHT22;2467;48.142;11.616;2023-04-08T03:20:21;6.40;99.90
4904;DHT22;2467;48.142;11.616;2023-04-08T03:20:54;6.40;99.90
4904;DHT22;2467;48.142;11.616;2023-04-08T03:21:26;6.40;99.90
4904;DHT22;2467;48.142;11.616;2023-04-08T03:21:58;6.40;99.90
4904;DHT22;2467;48.142;11.616;2023-04-08T03:22:32;6.40;99.90
4904;DHT22;2467;48.142;11.616;2023-04-08T03:23:04;6.40;99.90
4904;DHT22;2467;48.142;11.616;2023-04-08T03:23:36;6.40;99.90
4904;DHT22;2467;48.142;11.616;2023-04-08T03:24:08;6.40;99.90
4904;DHT22;2467;48.142;11.616;2023-04-08T03:24:40;6.40;99.90
4904;DHT22;2467;48.142;11.616;2023-04-08T03:25:12;6.40;99.90
4904;DHT22;2467;48.142;11.616;2023-04-08T03:25:45;6.40;99.90
4904;DHT22;2467;48.142;11.616;2023-04-08T03:26:17;6.30;99.90
4904;DHT22;2467;48.142;11.616;2023-04-08T03:26:49;6.40;99.90
4904;DHT22;2467;48.142;11.616;2023-04-08T03:27:23;6.40;99.90
4904;DHT22;2467;48.142;11.616;2023-04-08T03:27:57;6.30;99.90
4904;DHT22;2467;48.142;11.616;2023-04-08T03:28:29;6.30;99.90
4904;DHT22;2467;48.142;11.616;2023-04-08T03:29:02;6.30;99.90
4904;DHT22;2467;48.142;11.616;2023-04-08T03:29:34;6.30;99.90
4904;DHT22;2467;48.142;11.616;2023-04-08T03:30:07;6.30;99.90
4904;DHT22;2467;48.142;11.616;2023-04-08T03:30:40;6.30;99.90
4904;DHT22;2467;48.142;11.616;2023-04-08T03:31:12;6.30;99.90
4904;DHT22;2467;48.142;11.616;2023-04-08T03:31:43;6.30;99.90
4904;DHT22;2467;48.142;11.616;2023-04-08T03:32:17;6.40;99.90
4904;DHT22;2467;48.142;11.616;2023-04-08T03:32:48;6.40;99.90
4904;DHT22;2467;48.142;11.616;2023-04-08T03:33:20;6.40;99.90
4904;DHT22;2467;48.142;11.616;2023-04-08T03:33:53;6.40;99.90
4904;DHT22;2467;48.142;11.616;2023-04-08T03:34:25;6.40;99.90
4904;DHT22;2467;48.142;11.616;2023-04-08T03:34:57;6.40;99.90
4904;DHT22;2467;48.142;11.616;2023-04-08T03:35:30;6.50;99.90
4904;DHT22;2467;48.142;11.616;2023-04-08T03:36:01;6.40;99.90
4904;DHT22;2467;48.142;11.616;2023-04-08T03:36:33;6.40;99.90
4904;DHT22;2467;48.142;11.616;2023-04-08T03:37:06;6.40;99.90
4904;DHT22;2467;48.142;11.616;2023-04-08T03:37:38;6.40;99.90
4904;DHT22;2467;48.142;11.616;2023-04-08T03:38:10;6.40;99.90
4904;DHT22;2467;48.142;11.616;2023-04-08T03:38:43;6.40;99.90
4904;DHT22;2467;48.142;11.616;2023-04-08T03:39:16;6.40;99.90